Time;durP1;ratioP1;P1;durP2;ratioP2;P2;SDS_P1;SDS_P2;PMS_P1;PMS_P2;Temp;Humidity;BMP_temperature;BMP_pressure;BME280_temperature;BME280_humidity;BME280_pressure;Samples;Min_cycle;Max_cycle;Signal;HPM_P1;HPM_P2
2024/01/18 00:02:16;;;;;;;27.20;15.60;;;;;;;1.27;80.50;97320.08;130434;1260;109373;-76
2024/01/18 00:05:21;;;;;;;24.80;14.60;;;;;;;1.31;80.57;97316.89;130397;1259;107460;-77
2024/01/18 00:08:27;;;;;;;27.50;16.00;;;;;;;1.30;80.46;97315.77;130432;1261;108711;-76
2024/01/18 00:11:32;;;;;;;27.00;15.10;;;;;;;1.31;80.49;97311.64;130417;1261;107815;-77
2024/01/18 00:14:38;;;;;;;24.60;14.80;;;;;;;1.30;80.53;97312.02;130382;1259;106500;-78
2024/01/18 00:17:44;;;;;;;25.70;14.70;;;;;;;1.29;80.70;97316.73;130377;1257;107154;-77
2024/01/18 00:20:49;;;;;;;30.40;16.80;;;;;;;1.28;80.72;97320.71;130381;1261;107552;-77
2024/01/18 00:23:55;;;;;;;25.50;14.30;;;;;;;1.29;80.83;97312.73;130369;1259;106871;-77
2024/01/18 00:27:01;;;;;;;73.40;30.40;;;;;;;1.32;81.21;97307.08;130488;1256;107683;-76
2024/01/18 00:30:09;;;;;;;31.40;17.40;;;;;;;1.37;81.04;97313.73;130497;1256;107143;-78
2024/01/18 00:33:14;;;;;;;30.30;16.70;;;;;;;1.44;80.91;97314.77;130520;1258;108467;-77
2024/01/18 00:36:20;;;;;;;28.10;16.00;;;;;;;1.47;81.11;97315.45;130521;1256;108540;-78
2024/01/18 00:39:26;;;;;;;95.70;39.90;;;;;;;1.51;80.95;97311.34;130498;1262;107784;-77
2024/01/18 00:42:31;;;;;;;63.00;25.40;;;;;;;1.52;81.06;97304.53;130521;1261;107560;-76
2024/01/18 00:45:37;;;;;;;42.10;19.90;;;;;;;1.51;81.26;97301.73;130509;1256;107752;-77
2024/01/18 00:48:42;;;;;;;42.10;21.10;;;;;;;1.48;81.21;97302.35;130482;1261;108772;-77
2024/01/18 00:51:48;;;;;;;31.70;16.90;;;;;;;1.47;81.34;97306.16;130463;1261;108503;-77
2024/01/18 00:54:54;;;;;;;30.30;16.00;;;;;;;1.44;81.34;97312.66;130494;1256;108373;-77
2024/01/18 00:58:00;;;;;;;32.90;17.50;;;;;;;1.44;81.46;97317.92;130486;1256;108542;-77
2024/01/18 01:01:06;;;;;;;24.60;14.40;;;;;;;1.46;81.73;97316.24;130491;1256;107902;-77
2024/01/18 01:04:12;;;;;;;19.40;11.60;;;;;;;1.52;81.84;97307.42;130481;1262;108710;-77
2024/01/18 01:07:18;;;;;;;19.70;12.10;;;;;;;1.59;81.92;97308.95;130349;1261;106343;-79
2024/01/18 01:10:24;;;;;;;23.60;14.20;;;;;;;1.66;82.12;97314.13;130345;1261;107812;-77
2024/01/18 01:13:29;;;;;;;23.10;13.50;;;;;;;1.71;82.23;97311.05;130593;1262;108540;-77
2024/01/18 01:16:35;;;;;;;21.10;12.90;;;;;;;1.73;82.10;97309.79;130479;1261;108641;-77
2024/01/18 01:19:40;;;;;;;24.00;13.60;;;;;;;1.74;82.22;97303.06;130502;1262;108736;-77
2024/01/18 01:22:46;;;;;;;28.90;15.30;;;;;;;1.75;82.16;97302.39;130506;1261;107668;-77
2024/01/18 01:25:52;;;;;;;23.30;13.80;;;;;;;1.75;82.17;97298.95;130533;1261;106555;-77
2024/01/18 01:28:58;;;;;;;25.90;15.30;;;;;;;1.72;82.22;97293.07;130513;1256;106281;-77
2024/01/18 01:32:04;;;;;;;22.80;13.80;;;;;;;1.71;82.44;97292.85;130520;1262;108359;-77
2024/01/18 01:35:10;;;;;;;24.60;13.20;;;;;;;1.72;82.53;97296.30;130557;1256;107690;-77
2024/01/18 01:38:16;;;;;;;28.00;15.80;;;;;;;1.76;82.60;97297.55;130502;1262;108691;-77
2024/01/18 01:41:22;;;;;;;22.70;13.70;;;;;;;1.84;82.64;97296.73;130542;1262;107244;-77
2024/01/18 01:44:27;;;;;;;26.10;15.70;;;;;;;1.90;82.62;97305.65;130497;1262;108658;-77
2024/01/18 01:47:33;;;;;;;41.40;27.60;;;;;;;1.95;82.56;97299.70;130474;1256;106390;-76
2024/01/18 01:50:39;;;;;;;30.30;19.10;;;;;;;1.99;82.54;97296.80;130542;1262;106485;-77
2024/01/18 01:53:44;;;;;;;36.60;23.00;;;;;;;2.01;82.58;97300.05;130540;1256;106478;-76
2024/01/18 01:56:54;;;;;;;26.10;15.80;;;;;;;2.02;82.76;97302.49;130522;1256;106846;-77
2024/01/18 02:00:00;;;;;;;22.70;13.70;;;;;;;2.02;82.89;97297.39;130514;1262;108664;-76
2024/01/18 02:03:06;;;;;;;26.10;15.20;;;;;;;2.01;82.79;97295.06;130489;1257;107811;-77
2024/01/18 02:06:12;;;;;;;27.00;15.50;;;;;;;2.02;82.93;97290.16;130479;1262;107418;-76
2024/01/18 02:09:18;;;;;;;24.30;13.60;;;;;;;2.06;83.06;97291.31;130513;1256;106764;-78
2024/01/18 02:12:25;;;;;;;24.30;14.50;;;;;;;2.11;83.06;97292.84;130521;1262;108617;-77
2024/01/18 02:15:32;;;;;;;24.70;14.90;;;;;;;2.16;83.13;97296.95;130544;1256;106968;-77
2024/01/18 02:18:37;;;;;;;26.30;16.10;;;;;;;2.21;83.07;97287.36;130503;1256;108666;-77
2024/01/18 02:21:43;;;;;;;26.70;16.80;;;;;;;2.23;83.28;97284.08;130495;1261;106441;-77
2024/01/18 02:24:55;;;;;;;26.30;16.00;;;;;;;2.25;83.21;97284.45;130482;1260;107183;-77
2024/01/18 02:28:01;;;;;;;26.20;17.00;;;;;;;2.25;83.22;97285.86;130582;1261;108757;-75
2024/01/18 02:31:06;;;;;;;26.50;16.50;;;;;;;2.23;83.35;97290.93;130612;1262;107742;-74
2024/01/18 02:34:15;;;;;;;28.90;17.10;;;;;;;2.21;83.53;97292.19;130450;1262;106421;-78
2024/01/18 02:37:21;;;;;;;28.40;17.30;;;;;;;2.20;83.59;97296.05;130497;1262;106588;-76
2024/01/18 02:40:27;;;;;;;29.70;17.70;;;;;;;2.22;83.64;97301.98;130481;1257;106822;-77
2024/01/18 02:43:33;;;;;;;30.20;16.50;;;;;;;2.24;83.91;97297.63;130508;1260;108644;-76
2024/01/18 02:46:39;;;;;;;31.70;18.10;;;;;;;2.28;83.94;97288.27;130513;1262;109092;-76
2024/01/18 02:49:45;;;;;;;46.70;27.90;;;;;;;2.32;83.97;97288.81;130525;1262;108477;-77
2024/01/18 02:52:51;;;;;;;40.30;26.00;;;;;;;2.36;83.78;97295.95;130509;1262;107170;-77
2024/01/18 02:55:56;;;;;;;40.30;25.70;;;;;;;2.38;83.88;97303.45;130524;1256;108459;-77
2024/01/18 02:59:02;;;;;;;40.10;24.30;;;;;;;2.39;83.89;97309.70;130525;1262;108330;-76
2024/01/18 03:02:08;;;;;;;45.30;31.00;;;;;;;2.39;83.89;97308.27;130523;1256;108550;-76
2024/01/18 03:05:14;;;;;;;34.70;20.60;;;;;;;2.36;83.95;97310.29;130526;1261;108655;-77
2024/01/18 03:08:20;;;;;;;40.60;25.90;;;;;;;2.36;83.98;97305.98;130475;1256;108687;-76
2024/01/18 03:11:25;;;;;;;38.40;21.80;;;;;;;2.36;84.07;97305.55;130501;1260;107644;-76
2024/01/18 03:14:31;;;;;;;29.40;15.70;;;;;;;2.42;84.18;97309.84;130490;1256;107931;-76
2024/01/18 03:17:36;;;;;;;32.40;18.50;;;;;;;2.49;84.09;97314.89;130506;1262;108668;-78
2024/01/18 03:20:42;;;;;;;30.00;19.40;;;;;;;2.54;84.21;97318.34;130503;1262;106574;-76
2024/01/18 03:23:47;;;;;;;31.30;20.10;;;;;;;2.58;84.03;97317.70;130549;1262;108737;-76
2024/01/18 03:26:54;;;;;;;38.50;25.50;;;;;;;2.60;84.23;97316.45;130568;1256;109215;-76
2024/01/18 03:29:59;;;;;;;37.80;23.20;;;;;;;2.60;84.27;97319.79;130499;1262;107833;-76
2024/01/18 03:33:05;;;;;;;35.40;22.10;;;;;;;2.60;84.38;97326.40;130535;1260;107245;-77
2024/01/18 03:36:11;;;;;;;510.50;219.20;;;;;;;2.59;84.37;97327.30;130316;1274;246155;-77
2024/01/18 03:39:16;;;;;;;451.40;194.90;;;;;;;2.55;84.49;97330.54;130493;1262;107621;-77
2024/01/18 03:42:22;;;;;;;567.90;251.00;;;;;;;2.51;84.56;97333.59;130498;1257;106885;-76
2024/01/18 03:45:27;;;;;;;141.80;62.00;;;;;;;2.49;84.81;97329.92;130462;1262;106351;-77
2024/01/18 03:48:33;;;;;;;484.70;206.10;;;;;;;2.51;84.94;97332.21;130543;1256;106301;-77
2024/01/18 03:51:39;;;;;;;271.30;94.80;;;;;;;2.55;84.75;97338.00;130517;1261;107650;-75
2024/01/18 03:54:44;;;;;;;99.20;40.50;;;;;;;2.62;84.83;97346.03;130534;1261;107737;-77
2024/01/18 03:57:50;;;;;;;144.40;54.00;;;;;;;2.67;84.89;97344.77;130500;1262;107900;-76
2024/01/18 04:00:55;;;;;;;175.50;64.40;;;;;;;2.71;84.85;97352.23;130430;1261;108135;-76
2024/01/18 04:04:01;;;;;;;130.90;49.50;;;;;;;2.71;84.84;97356.02;130453;1256;106310;-76
2024/01/18 04:07:07;;;;;;;76.40;32.50;;;;;;;2.72;84.83;97360.73;130521;1262;108553;-77
2024/01/18 04:10:13;;;;;;;124.20;52.90;;;;;;;2.70;84.94;97365.29;130516;1262;106985;-77
2024/01/18 04:13:19;;;;;;;116.60;50.00;;;;;;;2.68;85.00;97374.85;130572;1256;107711;-76
2024/01/18 04:16:24;;;;;;;417.50;183.20;;;;;;;2.64;85.19;97384.02;130483;1262;107103;-77
2024/01/18 04:19:30;;;;;;;143.50;64.80;;;;;;;2.62;85.13;97385.88;130591;1260;106109;-77
2024/01/18 04:22:36;;;;;;;153.60;64.00;;;;;;;2.63;85.23;97390.70;130516;1262;107781;-77
2024/01/18 04:25:42;;;;;;;75.70;36.60;;;;;;;2.66;85.24;97392.97;130522;1262;106827;-76
2024/01/18 04:28:48;;;;;;;560.30;321.30;;;;;;;2.68;85.42;97398.80;130544;1272;106594;-76
2024/01/18 04:31:53;;;;;;;740.90;441.90;;;;;;;2.72;85.60;97402.11;130547;1262;107615;-76
2024/01/18 04:34:59;;;;;;;507.40;274.90;;;;;;;2.73;85.60;97404.41;130487;1263;108343;-77
2024/01/18 04:38:05;;;;;;;272.10;114.40;;;;;;;2.71;85.72;97411.11;130518;1256;108613;-76
2024/01/18 04:41:10;;;;;;;125.80;48.10;;;;;;;2.68;86.07;97412.68;130520;1262;107842;-76
2024/01/18 04:44:15;;;;;;;113.30;43.30;;;;;;;2.58;86.56;97412.30;130518;1257;107662;-76
2024/01/18 04:47:21;;;;;;;157.10;80.10;;;;;;;2.53;86.73;97411.05;130533;1269;108547;-76
2024/01/18 04:50:27;;;;;;;62.30;26.40;;;;;;;2.50;86.87;97414.42;130501;1262;107510;-76
2024/01/18 04:53:32;;;;;;;60.00;27.80;;;;;;;2.49;87.69;97422.40;130497;1262;108621;-76
2024/01/18 04:56:38;;;;;;;55.50;28.50;;;;;;;2.48;87.26;97424.64;130538;1261;108769;-76
2024/01/18 04:59:44;;;;;;;81.70;36.90;;;;;;;2.49;87.60;97427.13;130541;1270;106387;-76
2024/01/18 05:02:50;;;;;;;64.70;32.20;;;;;;;2.48;87.92;97431.35;130318;1262;107723;-75
2024/01/18 05:05:56;;;;;;;46.70;26.60;;;;;;;2.40;87.43;97438.16;130384;1263;106489;-77
2024/01/18 05:09:04;;;;;;;41.50;24.20;;;;;;;2.35;87.33;97441.11;130494;1262;107558;-76
2024/01/18 05:12:10;;;;;;;70.20;38.10;;;;;;;2.28;87.98;97447.21;130502;1260;106674;-76
2024/01/18 05:15:16;;;;;;;42.20;23.90;;;;;;;2.22;88.11;97447.49;130532;1264;108640;-76
2024/01/18 05:18:23;;;;;;;112.90;45.50;;;;;;;2.21;88.08;97446.77;130518;1262;108486;-77
2024/01/18 05:21:28;;;;;;;395.50;147.10;;;;;;;2.21;88.04;97447.04;130505;1262;108565;-75
2024/01/18 05:24:34;;;;;;;311.00;119.30;;;;;;;2.27;87.75;97453.23;130510;1260;108444;-76
2024/01/18 05:27:40;;;;;;;154.20;63.20;;;;;;;2.30;87.84;97457.14;130520;1256;107211;-77
2024/01/18 05:30:46;;;;;;;79.30;37.80;;;;;;;2.33;87.54;97462.91;130548;1262;106891;-78
2024/01/18 05:33:51;;;;;;;287.00;129.50;;;;;;;2.32;87.44;97464.64;130529;1266;108675;-76
2024/01/18 05:36:57;;;;;;;282.00;118.00;;;;;;;2.31;87.36;97469.48;130546;1261;107927;-77
2024/01/18 05:40:03;;;;;;;336.10;129.80;;;;;;;2.28;87.41;97472.44;130491;1260;107446;-77
2024/01/18 05:43:09;;;;;;;216.70;88.60;;;;;;;2.28;87.44;97473.98;130540;1262;107906;-75
2024/01/18 05:46:14;;;;;;;318.70;135.60;;;;;;;2.31;87.49;97476.84;130538;1262;106435;-73
2024/01/18 05:49:21;;;;;;;137.10;62.40;;;;;;;2.36;87.36;97478.93;130529;1262;107597;-77
2024/01/18 05:52:29;;;;;;;63.60;33.00;;;;;;;2.42;87.36;97491.95;130520;1262;107556;-76
2024/01/18 05:55:35;;;;;;;92.20;44.70;;;;;;;2.46;87.23;97502.55;131080;1256;106388;-76
2024/01/18 05:58:41;;;;;;;67.30;32.50;;;;;;;2.46;87.30;97500.83;130527;1260;107381;-76
2024/01/18 06:01:46;;;;;;;107.80;50.30;;;;;;;2.39;87.35;97504.98;130545;1263;107726;-76
2024/01/18 06:04:52;;;;;;;73.10;39.10;;;;;;;2.31;87.57;97513.14;130531;1270;107142;-76
2024/01/18 06:07:57;;;;;;;68.40;35.70;;;;;;;2.24;87.37;97518.83;130507;1262;107539;-76
2024/01/18 06:11:04;;;;;;;391.20;188.20;;;;;;;2.22;87.52;97516.95;130446;1256;108683;-77
2024/01/18 06:14:09;;;;;;;179.40;80.10;;;;;;;2.20;87.55;97519.05;130493;1260;108695;-77
2024/01/18 06:17:15;;;;;;;52.70;28.40;;;;;;;2.17;87.80;97518.74;130484;1264;107739;-77
2024/01/18 06:20:20;;;;;;;46.40;25.50;;;;;;;2.13;87.74;97520.06;130520;1258;108437;-77
2024/01/18 06:23:26;;;;;;;47.60;25.30;;;;;;;2.13;88.09;97527.91;130477;1270;108372;-76
2024/01/18 06:26:31;;;;;;;87.70;49.40;;;;;;;2.11;87.89;97528.35;130498;1262;107542;-76
2024/01/18 06:29:37;;;;;;;59.20;33.40;;;;;;;2.14;87.80;97530.25;130507;1263;108660;-77
2024/01/18 06:32:43;;;;;;;54.00;32.70;;;;;;;2.13;88.01;97532.33;130508;1262;107684;-78
2024/01/18 06:35:48;;;;;;;70.80;39.10;;;;;;;2.04;88.25;97535.70;130655;1260;108471;-78
2024/01/18 06:38:54;;;;;;;79.00;37.30;;;;;;;1.95;88.20;97535.98;130379;1257;107626;-79
2024/01/18 06:42:01;;;;;;;50.90;28.10;;;;;;;1.91;88.44;97543.39;130336;1259;108764;-76
2024/01/18 06:45:09;;;;;;;48.50;25.90;;;;;;;1.86;88.58;97541.39;130331;1262;107797;-77
2024/01/18 06:48:15;;;;;;;52.80;28.40;;;;;;;1.79;89.32;97547.50;130394;1272;108692;-76
2024/01/18 06:51:21;;;;;;;48.20;27.20;;;;;;;1.71;89.48;97554.83;130357;1262;106579;-78
2024/01/18 06:54:27;;;;;;;54.80;29.80;;;;;;;1.68;89.18;97555.39;130347;1269;107675;-78
2024/01/18 06:57:33;;;;;;;54.10;30.20;;;;;;;1.67;89.77;97557.94;130543;1269;106721;-77
2024/01/18 07:00:39;;;;;;;81.20;34.40;;;;;;;1.58;90.31;97555.86;130398;1263;110324;-77
2024/01/18 07:03:44;;;;;;;61.50;32.30;;;;;;;1.53;90.35;97562.92;130466;1270;106887;-77
2024/01/18 07:06:50;;;;;;;59.10;29.30;;;;;;;1.50;90.16;97571.28;130529;1258;108383;-77
2024/01/18 07:09:56;;;;;;;94.60;38.00;;;;;;;1.55;90.12;97579.64;130508;1263;108577;-77
2024/01/18 07:13:02;;;;;;;58.80;30.50;;;;;;;1.60;90.11;97584.95;130530;1262;107792;-78
2024/01/18 07:16:08;;;;;;;60.90;30.90;;;;;;;1.57;89.96;97594.52;130514;1266;106558;-77
2024/01/18 07:19:14;;;;;;;84.70;38.10;;;;;;;1.54;90.11;97606.05;130544;1258;107075;-78
2024/01/18 07:22:19;;;;;;;162.70;55.90;;;;;;;1.51;90.12;97611.06;130636;1262;107594;-77
2024/01/18 07:25:25;;;;;;;141.20;51.90;;;;;;;1.47;89.75;97617.98;130370;1262;108656;-78
2024/01/18 07:28:30;;;;;;;63.60;31.50;;;;;;;1.45;90.09;97623.96;130555;1260;108658;-76
2024/01/18 07:31:36;;;;;;;75.30;35.00;;;;;;;1.45;90.09;97625.77;130531;1260;106466;-76
2024/01/18 07:34:42;;;;;;;179.30;79.90;;;;;;;1.46;90.68;97630.23;130588;1260;106400;-77
2024/01/18 07:37:47;;;;;;;66.80;34.80;;;;;;;1.45;90.67;97633.05;130444;1262;108827;-78
2024/01/18 07:40:53;;;;;;;61.30;32.40;;;;;;;1.43;90.80;97631.87;130398;1261;106341;-77
2024/01/18 07:43:58;;;;;;;64.60;34.90;;;;;;;1.40;90.54;97632.98;130353;1263;108833;-77
2024/01/18 07:47:04;;;;;;;61.30;31.30;;;;;;;1.38;90.64;97635.27;130379;1271;107532;-77
2024/01/18 07:50:12;;;;;;;67.20;34.10;;;;;;;1.31;90.64;97641.55;130277;1263;107268;-78
2024/01/18 07:53:18;;;;;;;57.10;30.00;;;;;;;1.30;91.40;97641.34;130357;1262;108804;-77
2024/01/18 07:56:24;;;;;;;111.20;47.80;;;;;;;1.25;91.11;97642.33;130427;1256;108785;-78
2024/01/18 07:59:29;;;;;;;64.00;31.90;;;;;;;1.28;91.40;97645.52;130528;1260;106850;-78
2024/01/18 08:02:35;;;;;;;64.50;33.60;;;;;;;1.30;90.81;97648.52;130519;1260;108642;-76
2024/01/18 08:05:40;;;;;;;64.00;33.00;;;;;;;1.33;90.91;97657.65;130549;1267;106503;-78
2024/01/18 08:08:46;;;;;;;66.40;33.80;;;;;;;1.31;91.04;97661.52;130501;1257;106589;-78
2024/01/18 08:11:52;;;;;;;75.30;36.60;;;;;;;1.28;91.40;97667.29;130506;1260;107178;-77
2024/01/18 08:14:57;;;;;;;68.30;33.80;;;;;;;1.22;91.62;97672.08;130529;1257;108318;-78
2024/01/18 08:18:03;;;;;;;96.60;48.80;;;;;;;1.27;91.38;97678.05;130530;1270;107631;-76
2024/01/18 08:21:09;;;;;;;70.30;35.10;;;;;;;1.38;91.19;97688.81;130600;1261;108799;-78
2024/01/18 08:24:15;;;;;;;68.80;34.20;;;;;;;1.41;91.12;97698.15;130356;1261;106415;-78
2024/01/18 08:27:20;;;;;;;72.30;34.70;;;;;;;1.39;91.08;97705.33;130496;1271;108300;-79
2024/01/18 08:30:26;;;;;;;69.60;33.60;;;;;;;1.36;91.35;97708.86;130532;1262;106456;-78
2024/01/18 08:33:32;;;;;;;68.70;34.00;;;;;;;1.33;91.56;97710.72;130448;1271;109604;-79
2024/01/18 08:36:38;;;;;;;69.00;35.10;;;;;;;1.31;91.76;97714.59;130583;1257;107576;-79
2024/01/18 08:39:43;;;;;;;69.50;33.00;;;;;;;1.28;92.43;97717.70;130510;1260;107748;-76
2024/01/18 08:42:49;;;;;;;71.60;34.10;;;;;;;1.26;91.74;97719.63;130505;1262;108777;-78
2024/01/18 08:45:55;;;;;;;68.30;33.60;;;;;;;1.25;91.91;97716.78;130485;1270;107658;-79
2024/01/18 08:49:00;;;;;;;67.60;33.00;;;;;;;1.23;91.79;97719.98;130479;1270;107775;-79
2024/01/18 08:52:07;;;;;;;71.10;34.10;;;;;;;1.24;91.78;97716.52;130496;1261;107409;-77
2024/01/18 08:55:15;;;;;;;79.50;36.40;;;;;;;1.31;92.02;97718.65;130516;1261;107678;-79
2024/01/18 08:58:20;;;;;;;71.00;34.00;;;;;;;1.35;91.83;97722.91;130519;1261;106717;-79
2024/01/18 09:01:26;;;;;;;72.90;34.40;;;;;;;1.44;91.49;97730.21;130576;1258;106356;-80
2024/01/18 09:04:32;;;;;;;76.80;35.40;;;;;;;1.44;91.19;97733.23;130657;1260;106893;-80
2024/01/18 09:07:38;;;;;;;66.50;31.90;;;;;;;1.43;90.90;97735.95;130398;1264;107668;-80
2024/01/18 09:10:44;;;;;;;77.40;37.20;;;;;;;1.43;90.66;97736.88;130302;1271;108716;-79
2024/01/18 09:13:50;;;;;;;74.90;34.90;;;;;;;1.54;90.67;97736.73;130282;1264;107830;-79
2024/01/18 09:16:56;;;;;;;65.80;31.90;;;;;;;1.70;90.18;97741.23;130255;1262;108487;-79
2024/01/18 09:20:03;;;;;;;89.30;40.10;;;;;;;1.79;89.70;97740.85;130313;1263;106924;-77
2024/01/18 09:23:09;;;;;;;78.10;38.20;;;;;;;1.92;89.46;97742.29;130608;1257;108487;-80
2024/01/18 09:26:25;;;;;;;68.50;34.30;;;;;;;1.94;88.85;97742.94;130751;1257;108936;-83
2024/01/18 09:29:31;;;;;;;73.10;34.20;;;;;;;1.95;88.61;97752.69;130945;1257;108856;-82
2024/01/18 09:32:36;;;;;;;70.90;35.90;;;;;;;1.90;88.30;97758.45;130584;1261;107724;-82
2024/01/18 09:35:42;;;;;;;69.50;33.70;;;;;;;1.86;88.21;97756.46;130726;1271;106183;-82
2024/01/18 09:38:48;;;;;;;70.70;36.00;;;;;;;1.72;88.02;97758.91;130574;1264;106605;-79
2024/01/18 09:41:54;;;;;;;75.20;36.60;;;;;;;1.67;87.90;97755.40;130359;1263;108624;-80
2024/01/18 09:45:09;;;;;;;72.60;35.70;;;;;;;1.67;88.23;97754.91;130687;1263;106929;-80
2024/01/18 09:48:15;;;;;;;66.40;35.00;;;;;;;1.68;88.02;97762.45;130473;1257;106652;-80
2024/01/18 09:51:23;;;;;;;63.00;33.10;;;;;;;1.65;87.67;97757.67;130529;1257;108622;-80
2024/01/18 09:54:29;;;;;;;64.90;35.20;;;;;;;1.65;87.47;97759.02;130511;1264;108694;-80
2024/01/18 09:57:41;;;;;;;67.20;34.90;;;;;;;1.53;86.72;97762.08;130742;1258;107649;-80
2024/01/18 10:00:54;;;;;;;64.60;33.40;;;;;;;1.43;87.10;97768.93;130689;1258;108532;-80
2024/01/18 10:04:00;;;;;;;63.20;34.30;;;;;;;1.37;87.12;97771.73;130677;1260;107060;-80
2024/01/18 10:07:08;;;;;;;67.20;35.70;;;;;;;1.41;87.25;97783.63;130737;1257;106805;-79
2024/01/18 10:10:15;;;;;;;62.80;35.30;;;;;;;1.54;87.08;97793.01;130467;1261;106729;-79
2024/01/18 10:13:20;;;;;;;108.00;58.80;;;;;;;1.63;87.34;97800.50;130511;1261;106545;-79
2024/01/18 10:16:32;;;;;;;65.30;35.70;;;;;;;1.81;87.56;97804.96;130490;1261;106477;-79
2024/01/18 10:19:37;;;;;;;73.00;38.20;;;;;;;1.75;85.46;97820.11;130750;1258;107718;-80
2024/01/18 10:22:43;;;;;;;70.30;37.10;;;;;;;1.57;85.96;97826.89;130766;1261;107754;-79
2024/01/18 10:25:49;;;;;;;69.10;37.60;;;;;;;1.42;85.82;97832.12;130660;1257;106610;-79
2024/01/18 10:28:55;;;;;;;76.40;38.10;;;;;;;1.30;86.39;97828.20;130690;1261;106410;-79
2024/01/18 10:32:02;;;;;;;73.40;37.40;;;;;;;1.25;86.58;97830.83;130646;1257;105553;-81
2024/01/18 10:35:18;;;;;;;77.50;39.80;;;;;;;1.20;86.73;97830.80;131027;1257;106182;-80
2024/01/18 10:38:29;;;;;;;83.20;41.80;;;;;;;1.20;87.19;97819.86;131079;1257;106517;-80
2024/01/18 10:41:35;;;;;;;91.00;43.50;;;;;;;1.19;87.27;97805.63;134642;1256;108527;-81
2024/01/18 10:44:45;;;;;;;110.80;51.50;;;;;;;1.20;87.37;97800.29;133276;1256;108665;-81
2024/01/18 10:47:51;;;;;;;81.40;40.50;;;;;;;1.21;87.18;97810.67;131197;1258;106190;-80
2024/01/18 10:50:57;;;;;;;88.80;43.90;;;;;;;1.14;87.12;97819.09;131251;1257;108734;-79
2024/01/18 10:54:05;;;;;;;69.20;35.40;;;;;;;1.17;87.04;97816.02;131338;1262;108856;-80
2024/01/18 10:57:12;;;;;;;80.00;41.30;;;;;;;1.32;86.92;97817.88;131942;1257;106783;-79
2024/01/18 11:00:19;;;;;;;78.90;41.20;;;;;;;1.40;86.16;97831.88;131646;1257;108544;-79
2024/01/18 11:03:25;;;;;;;77.70;40.90;;;;;;;1.41;85.70;97842.34;130539;1260;107642;-81
2024/01/18 11:06:31;;;;;;;77.80;40.00;;;;;;;1.43;86.20;97855.27;130910;1264;107603;-81
2024/01/18 11:09:38;;;;;;;78.60;40.60;;;;;;;1.46;85.44;97863.90;131667;1257;108558;-80
2024/01/18 11:12:46;;;;;;;81.60;41.50;;;;;;;1.37;85.40;97877.08;133570;1256;109046;-79
2024/01/18 11:15:53;;;;;;;71.80;38.60;;;;;;;1.31;85.59;97887.94;131030;1261;106748;-86
2024/01/18 11:19:02;;;;;;;71.80;39.00;;;;;;;1.30;85.17;97887.44;130791;1257;107760;-84
2024/01/18 11:22:11;;;;;;;80.00;40.70;;;;;;;1.29;85.31;97889.27;130815;1257;108495;-86
2024/01/18 11:25:21;;;;;;;75.20;40.90;;;;;;;1.34;85.46;97894.54;130803;1264;108772;-84
2024/01/18 11:28:28;;;;;;;74.60;41.30;;;;;;;1.27;84.55;97896.95;130709;1263;108061;-84
2024/01/18 11:31:49;;;;;;;79.50;43.50;;;;;;;1.17;84.65;97901.23;130944;1257;108962;-80
2024/01/18 11:35:07;;;;;;;83.70;45.10;;;;;;;1.10;84.63;97904.00;130655;1260;106504;-82
2024/01/18 11:38:32;;;;;;;82.70;43.20;;;;;;;1.05;84.93;97906.45;130781;1257;106282;-80
2024/01/18 11:41:38;;;;;;;80.60;42.00;;;;;;;1.12;85.37;97908.74;130964;1257;106811;-81
2024/01/18 11:44:54;;;;;;;97.90;48.50;;;;;;;1.21;85.06;97914.17;131058;1262;107439;-80
2024/01/18 11:48:00;;;;;;;82.70;43.60;;;;;;;1.28;84.81;97916.85;130625;1260;106739;-80
2024/01/18 11:51:06;;;;;;;78.90;41.70;;;;;;;1.32;84.73;97915.88;130628;1258;106473;-81
2024/01/18 11:54:15;;;;;;;89.40;48.90;;;;;;;1.34;84.23;97921.80;130782;1263;107490;-81
2024/01/18 11:57:21;;;;;;;126.80;65.90;;;;;;;1.27;84.24;97920.80;130561;1257;108764;-81
2024/01/18 12:00:26;;;;;;;84.50;43.50;;;;;;;1.30;84.82;97910.20;130337;1263;108704;-80
2024/01/18 12:03:32;;;;;;;83.50;44.20;;;;;;;1.31;83.32;97900.29;130501;1260;108612;-81
2024/01/18 12:06:38;;;;;;;78.30;43.40;;;;;;;1.16;83.26;97889.27;130724;1261;108782;-81
2024/01/18 12:09:52;;;;;;;81.90;42.60;;;;;;;1.18;84.22;97887.88;130839;1262;107391;-85
2024/01/18 12:12:59;;;;;;;74.40;40.30;;;;;;;1.18;83.58;97892.96;130545;1257;106496;-81
2024/01/18 12:16:06;;;;;;;73.20;39.80;;;;;;;1.09;83.09;97905.70;130424;1257;108394;-86
2024/01/18 12:19:12;;;;;;;77.40;42.70;;;;;;;1.12;83.13;97909.30;131045;1257;106748;-79
2024/01/18 12:22:19;;;;;;;80.80;42.10;;;;;;;1.07;83.08;97915.36;133561;1257;107805;-79
2024/01/18 12:25:28;;;;;;;82.30;45.00;;;;;;;1.09;83.20;97920.13;130702;1257;108578;-79
2024/01/18 12:28:33;;;;;;;85.20;46.20;;;;;;;1.08;83.39;97902.37;130527;1258;107579;-80
2024/01/18 12:31:39;;;;;;;96.30;52.60;;;;;;;1.09;83.26;97894.50;130504;1257;107508;-79
2024/01/18 12:34:45;;;;;;;79.40;45.30;;;;;;;1.09;83.28;97894.76;130464;1262;107883;-80
2024/01/18 12:37:52;;;;;;;77.70;44.00;;;;;;;0.98;82.63;97893.48;130771;1258;107725;-81
2024/01/18 12:40:58;;;;;;;77.90;41.70;;;;;;;0.86;82.65;97897.51;130858;1257;107754;-79
2024/01/18 12:44:13;;;;;;;91.90;47.50;;;;;;;0.76;82.47;97895.98;131982;1261;106366;-80
2024/01/18 12:47:18;;;;;;;82.20;43.30;;;;;;;0.62;82.78;97899.77;131135;1257;108098;-80
2024/01/18 12:50:24;;;;;;;90.40;48.00;;;;;;;0.55;82.66;97911.69;130930;1271;107653;-82
2024/01/18 12:53:30;;;;;;;78.40;42.30;;;;;;;0.52;82.33;97914.96;130806;1256;107465;-80
2024/01/18 12:56:36;;;;;;;90.30;47.00;;;;;;;0.46;82.40;97919.02;131414;1260;107710;-85
2024/01/18 12:59:42;;;;;;;89.40;48.40;;;;;;;0.42;81.92;97910.82;132035;1256;108586;-80
2024/01/18 13:02:48;;;;;;;89.50;47.90;;;;;;;0.39;81.86;97883.30;131134;1257;108837;-80
2024/01/18 13:05:57;;;;;;;87.10;46.30;;;;;;;0.32;81.76;97892.48;130740;1260;108614;-76
2024/01/18 13:09:04;;;;;;;90.20;44.30;;;;;;;0.29;81.95;97906.23;130690;1262;107713;-78
2024/01/18 13:12:10;;;;;;;85.90;44.90;;;;;;;0.28;82.41;97920.33;130551;1261;106704;-77
2024/01/18 13:15:17;;;;;;;90.10;47.90;;;;;;;0.28;82.48;97945.38;130500;1258;108617;-77
2024/01/18 13:18:22;;;;;;;89.30;46.10;;;;;;;0.31;82.45;97966.60;130570;1256;108852;-79
2024/01/18 13:21:28;;;;;;;78.20;42.30;;;;;;;0.38;82.49;97972.92;130726;1260;107781;-79
2024/01/18 13:24:34;;;;;;;71.30;41.30;;;;;;;0.39;82.40;97972.46;130414;1257;107698;-77
2024/01/18 13:27:39;;;;;;;75.90;41.90;;;;;;;0.38;82.14;97977.64;130478;1260;106594;-76
2024/01/18 13:30:45;;;;;;;83.50;46.30;;;;;;;0.35;82.42;97987.15;130456;1261;106891;-79
2024/01/18 13:33:51;;;;;;;75.90;42.60;;;;;;;0.36;82.77;97984.66;130370;1261;106367;-77
2024/01/18 13:36:57;;;;;;;79.80;46.60;;;;;;;0.37;82.45;97992.72;130419;1262;107235;-78
2024/01/18 13:40:08;;;;;;;91.60;48.90;;;;;;;0.36;82.58;97998.44;130373;1262;108713;-79
2024/01/18 13:43:13;;;;;;;81.20;44.00;;;;;;;0.32;82.48;98004.75;130394;1257;106642;-77
2024/01/18 13:46:19;;;;;;;72.30;39.10;;;;;;;0.29;82.37;97988.15;130394;1265;106663;-80
2024/01/18 13:49:25;;;;;;;83.10;44.10;;;;;;;0.28;82.55;97995.94;130480;1256;108610;-79
2024/01/18 13:52:31;;;;;;;80.80;43.80;;;;;;;0.27;82.34;98015.89;130449;1256;106760;-78
2024/01/18 13:55:36;;;;;;;76.80;43.50;;;;;;;0.20;82.54;98002.59;130562;1262;108662;-79
2024/01/18 13:58:42;;;;;;;77.20;42.60;;;;;;;0.18;82.66;97994.16;130510;1261;107844;-79
2024/01/18 14:01:48;;;;;;;83.50;48.20;;;;;;;0.14;82.90;98019.91;130324;1261;108642;-80
2024/01/18 14:04:54;;;;;;;82.50;45.40;;;;;;;0.19;83.18;98034.66;130329;1262;107717;-79